EDDV 210050Z 32003KT CAVOK 10/08 Q1027 EDDV 210020Z 29002KT CAVOK 10/08 Q1026 EDDV 202350Z 30002KT CAVOK 10/09 Q1026 EDDV 202320Z 29002KT 9999 FEW046 10/09 Q1026 EDDV 202250Z 30003KT CAVOK 10/09 Q1026 EDDV 202220Z VRB01KT CAVOK 10/09 Q1026 EDDV 202150Z VRB01KT CAVOK 10/09 Q1026 EDDV 202120Z VRB01KT CAVOK 11/09 Q1026 EDDV 202050Z 35003KT 9999 FEW045 11/09 Q1026 NOSIG EDDV 202020Z 01004KT 9999 FEW045 11/09 Q1025 NOSIG EDDV 201950Z 02005KT 9999 FEW043 12/08 Q1025 NOSIG EDDV 201920Z 03004KT 9999 FEW043 12/09 Q1025 NOSIG EDDV 201850Z 01005KT 9999 BKN043 12/09 Q1025 NOSIG EDDV 201820Z 35003KT 9999 SCT046 11/10 Q1024 NOSIG EDDV 201750Z 35002KT 9999 FEW048 12/09 Q1024 NOSIG EDDV 201720Z 36003KT 320V030 9999 FEW045 13/09 Q1024 NOSIG EDDV 201650Z 01002KT 9999 FEW039 13/10 Q1024 NOSIG EDDV 201620Z 36002KT CAVOK 14/09 Q1023 NOSIG EDDV 201550Z VRB02KT 9999 FEW039 14/08 Q1023 NOSIG EDDV 201520Z 04003KT 360V060 9999 FEW039 14/08 Q1023 NOSIG EDDV 201450Z 04004KT 360V060 9999 FEW039 14/08 Q1023 NOSIG EDDV 201420Z 03004KT 9999 SCT041 14/07 Q1023 NOSIG EDDV 201350Z 05005KT 020V090 9999 FEW046 15/07 Q1023 NOSIG EDDV 201320Z 03006KT 360V070 9999 FEW045 14/07 Q1022 NOSIG EDDV 201250Z 05006KT 9999 SCT045 14/07 Q1022 NOSIG EDDV 201220Z 05005KT 9999 SCT041 14/07 Q1022 NOSIG EDDV 201150Z 04006KT 360V080 9999 SCT036 15/06 Q1022 NOSIG EDDV 201120Z 08008KT 9999 SCT033 14/07 Q1022 NOSIG EDDV 201050Z 06007KT 030V100 9999 SCT033 14/07 Q1022 NOSIG EDDV 201020Z 05004KT CAVOK 14/07 Q1022 NOSIG EDDV 200950Z 05004KT 360V090 CAVOK 14/08 Q1022 NOSIG EDDV 200920Z 06004KT 020V090 9999 FEW042 BKN048 13/08 Q1022 NOSIG EDDV 200850Z 07005KT 040V100 9999 FEW042 BKN048 12/08 Q1022 NOSIG EDDV 200820Z 07006KT 9999 FEW042 BKN048 12/08 Q1022 NOSIG EDDV 200750Z 07006KT 9999 FEW042 BKN048 12/08 Q1022 NOSIG EDDV 200720Z 07006KT 9999 FEW038 BKN048 11/07 Q1021 NOSIG EDDV 200650Z 07006KT CAVOK 11/07 Q1021 NOSIG EDDV 200620Z 07003KT 030V090 CAVOK 11/08 Q1021 NOSIG EDDV 200550Z 05004KT CAVOK 11/08 Q1021 NOSIG EDDV 200520Z 07003KT CAVOK 11/08 Q1021 NOSIG EDDV 200450Z 07005KT CAVOK 11/08 Q1021 NOSIG EDDV 200420Z 08006KT CAVOK 11/08 Q1020 NOSIG EDDV 200350Z 09005KT CAVOK 11/09 Q1020 NOSIG EDDV 200320Z 07006KT CAVOK 11/09 Q1020 EDDV 200250Z 06005KT CAVOK 11/09 Q1020 EDDV 200220Z 07005KT CAVOK 11/09 Q1020 EDDV 200150Z 06005KT 9999 BKN047 11/09 Q1020 EDDV 200120Z 07005KT 9999 SCT040 BKN048 11/09 Q1020 EDDV 200050Z 06004KT 9999 BKN048 11/09 Q1020 EDDV 200020Z 07004KT 9999 BKN047 12/09 Q1019 EDDV 192350Z 08004KT 9999 BKN047 12/09 Q1019 EDDV 192320Z 07005KT 9999 BKN046 12/09 Q1019 EDDV 192250Z 07004KT 9999 BKN048 11/09 Q1019 EDDV 192220Z 07005KT 9999 BKN048 11/09 Q1019 EDDV 192150Z 08003KT 9999 BKN045 12/09 Q1019 EDDV 192120Z 08003KT 9999 BKN046 12/09 Q1019 EDDV 192050Z 08003KT 9999 BKN047 12/09 Q1019 NOSIG EDDV 192020Z 08004KT 9999 BKN048 12/09 Q1019 NOSIG EDDV 191950Z 08003KT 9999 BKN047 12/09 Q1019 NOSIG EDDV 191920Z 07003KT 9999 BKN046 12/10 Q1019 NOSIG EDDV 191850Z 06002KT 9999 BKN046 12/09 Q1018 NOSIG EDDV 191820Z 05001KT 9999 BKN047 12/09 Q1018 NOSIG EDDV 191750Z 08003KT 9999 FEW035 BKN044 13/09 Q1018 NOSIG EDDV 191720Z 08003KT 9999 FEW035 BKN042 13/09 Q1018 NOSIG EDDV 191650Z 08005KT 9999 FEW035 BKN043 14/08 Q1018 NOSIG EDDV 191620Z 07005KT 9999 FEW035 BKN046 14/08 Q1018 NOSIG EDDV 191550Z 09007KT 9999 FEW035 BKN043 14/08 Q1018 NOSIG EDDV 191520Z 09008KT 9999 FEW035 BKN043 14/07 Q1018 NOSIG EDDV 191450Z 09007KT 9999 FEW033 OVC040 14/08 Q1018 NOSIG EDDV 191420Z 10006KT 9999 FEW033 OVC040 14/07 Q1018 NOSIG EDDV 191350Z 09008KT 9999 FEW033 OVC040 14/07 Q1018 NOSIG EDDV 191320Z 11006KT 080V170 9999 FEW033 OVC041 14/07 Q1018 NOSIG

METAR Messwerte

Zurück zur Übersicht

Ort
m ü. NN
Zeit Temperatur Taupunkt Rel.
Luftfeuchte
Luftdruck:
Altimeter
NN
Station
Wind in Beaufort
(Knoten)
Sichtweite
(Meter)
Wolken
(Meter über Grund)
Wettererscheinung
Hannover
54
Di 21.09. 02:5010887 %1027
1027
1020
NW 2 (3)>= 10000Nicht signifikant 
Hannover
54
Di 21.09. 02:2010887 %1026
1026
1019
WNW 1 (2)>= 10000Nicht signifikant 
Hannover
54
Di 21.09. 01:5010993 %1026
1026
1019
WNW 1 (2)>= 10000Nicht signifikant 
Hannover
54
Di 21.09. 01:2010993 %1026
1026
1019
WNW 1 (2)>= 10000Leicht bewölkt (1400) 
Hannover
54
Di 21.09. 00:5010993 %1026
1026
1019
WNW 2 (3)>= 10000Nicht signifikant 
Hannover
54
Di 21.09. 00:2010993 %1026
1026
1019
Uml 1 (1)>= 10000Nicht signifikant 
Hannover
54
Mo 20.09. 23:5010993 %1026
1026
1019
Uml 1 (1)>= 10000Nicht signifikant 
Hannover
54
Mo 20.09. 23:2011987 %1026
1026
1019
Uml 1 (1)>= 10000Nicht signifikant 
Hannover
54
Mo 20.09. 22:5011987 %1026
1026
1019
N 2 (3)>= 10000Leicht bewölkt (1400) 
Hannover
54
Mo 20.09. 22:2011987 %1025
1025
1018
N 2 (4)>= 10000Leicht bewölkt (1400) 
Hannover
54
Mo 20.09. 21:5012876 %1025
1025
1018
NNO 2 (5)>= 10000Leicht bewölkt (1300) 
Hannover
54
Mo 20.09. 21:2012982 %1025
1025
1018
NNO 2 (4)>= 10000Leicht bewölkt (1300) 
Hannover
54
Mo 20.09. 20:5012982 %1025
1025
1018
N 2 (5)>= 10000Stark bewölkt (1300) 
Hannover
54
Mo 20.09. 20:20111094 %1024
1024
1017
N 2 (3)>= 10000Wolkig (1400) 
Hannover
54
Mo 20.09. 19:5012982 %1024
1024
1017
N 1 (2)>= 10000Leicht bewölkt (1500) 
Hannover
54
Mo 20.09. 19:2013977 %1024
1024
1017
N 2 (3)
NW - NNO
>= 10000Leicht bewölkt (1400) 
Hannover
54
Mo 20.09. 18:50131082 %1024
1024
1017
N 1 (2)>= 10000Leicht bewölkt (1200) 
Hannover
54
Mo 20.09. 18:2014972 %1023
1023
1016
N 1 (2)>= 10000Nicht signifikant 
Hannover
54
Mo 20.09. 17:5014867 %1023
1023
1016
Uml 1 (2)>= 10000Leicht bewölkt (1200) 
Hannover
54
Mo 20.09. 17:2014867 %1023
1023
1016
NO 2 (3)
N - ONO
>= 10000Leicht bewölkt (1200) 
Hannover
54
Mo 20.09. 16:5014867 %1023
1023
1016
NO 2 (4)
N - ONO
>= 10000Leicht bewölkt (1200) 
Hannover
54
Mo 20.09. 16:2014763 %1023
1023
1016
NNO 2 (4)>= 10000Wolkig (1200) 
Hannover
54
Mo 20.09. 15:5015759 %1023
1023
1016
NO 2 (5)
NNO - O
>= 10000Leicht bewölkt (1400) 
Hannover
54
Mo 20.09. 15:2014763 %1022
1022
1015
NNO 2 (6)
N - ONO
>= 10000Leicht bewölkt (1400) 
Hannover
54
Mo 20.09. 14:5014763 %1022
1022
1015
NO 2 (6)>= 10000Wolkig (1400) 
Hannover
54
Mo 20.09. 14:2014763 %1022
1022
1015
NO 2 (5)>= 10000Wolkig (1200) 
Hannover
54
Mo 20.09. 13:5015655 %1022
1022
1015
NO 2 (6)
N - O
>= 10000Wolkig (1100) 
Hannover
54
Mo 20.09. 13:2014763 %1022
1022
1015
O 3 (8)>= 10000Wolkig (1000) 
Hannover
54
Mo 20.09. 12:5014763 %1022
1022
1015
ONO 3 (7)
NNO - O
>= 10000Wolkig (1000) 
Hannover
54
Mo 20.09. 12:2014763 %1022
1022
1015
NO 2 (4)>= 10000Nicht signifikant 
Hannover
54
Mo 20.09. 11:5014867 %1022
1022
1015
NO 2 (4)
N - O
>= 10000Nicht signifikant 
Hannover
54
Mo 20.09. 11:2013872 %1022
1022
1015
ONO 2 (4)
NNO - O
>= 10000Stark bewölkt (1500)
Leicht bewölkt (1300)
 
Hannover
54
Mo 20.09. 10:5012876 %1022
1022
1015
ONO 2 (5)
NO - O
>= 10000Stark bewölkt (1500)
Leicht bewölkt (1300)
 
Hannover
54
Mo 20.09. 10:2012876 %1022
1022
1015
ONO 2 (6)>= 10000Stark bewölkt (1500)
Leicht bewölkt (1300)
 
Hannover
54
Mo 20.09. 09:5012876 %1022
1022
1015
ONO 2 (6)>= 10000Stark bewölkt (1500)
Leicht bewölkt (1300)
 
Hannover
54
Mo 20.09. 09:2011776 %1021
1021
1014
ONO 2 (6)>= 10000Stark bewölkt (1500)
Leicht bewölkt (1200)
 
Hannover
54
Mo 20.09. 08:5011776 %1021
1021
1014
ONO 2 (6)>= 10000Nicht signifikant 
Hannover
54
Mo 20.09. 08:2011882 %1021
1021
1014
ONO 2 (3)
NNO - O
>= 10000Nicht signifikant 
Hannover
54
Mo 20.09. 07:5011882 %1021
1021
1014
NO 2 (4)>= 10000Nicht signifikant 
Hannover
54
Mo 20.09. 07:2011882 %1021
1021
1014
ONO 2 (3)>= 10000Nicht signifikant 
Hannover
54
Mo 20.09. 06:5011882 %1021
1021
1014
ONO 2 (5)>= 10000Nicht signifikant 
Hannover
54
Mo 20.09. 06:2011882 %1020
1020
1013
O 2 (6)>= 10000Nicht signifikant 
Hannover
54
Mo 20.09. 05:5011987 %1020
1020
1013
O 2 (5)>= 10000Nicht signifikant 
Hannover
54
Mo 20.09. 05:2011987 %1020
1020
1013
ONO 2 (6)>= 10000Nicht signifikant 
Hannover
54
Mo 20.09. 04:5011987 %1020
1020
1013
ONO 2 (5)>= 10000Nicht signifikant 
Hannover
54
Mo 20.09. 04:2011987 %1020
1020
1013
ONO 2 (5)>= 10000Nicht signifikant 
Hannover
54
Mo 20.09. 03:5011987 %1020
1020
1013
ONO 2 (5)>= 10000Stark bewölkt (1400) 
Hannover
54
Mo 20.09. 03:2011987 %1020
1020
1013
ONO 2 (5)>= 10000Stark bewölkt (1500)
Wolkig (1200)
 
Hannover
54
Mo 20.09. 02:5011987 %1020
1020
1013
ONO 2 (4)>= 10000Stark bewölkt (1500) 
Hannover
54
Mo 20.09. 02:2012982 %1019
1019
1012
ONO 2 (4)>= 10000Stark bewölkt (1400) 
Hannover
54
Mo 20.09. 01:5012982 %1019
1019
1012
O 2 (4)>= 10000Stark bewölkt (1400) 
Hannover
54
Mo 20.09. 01:2012982 %1019
1019
1012
ONO 2 (5)>= 10000Stark bewölkt (1400) 
Hannover
54
Mo 20.09. 00:5011987 %1019
1019
1012
ONO 2 (4)>= 10000Stark bewölkt (1500) 
Hannover
54
Mo 20.09. 00:2011987 %1019
1019
1012
ONO 2 (5)>= 10000Stark bewölkt (1500) 
Hannover
54
So 19.09. 23:5012982 %1019
1019
1012
O 2 (3)>= 10000Stark bewölkt (1400) 
Hannover
54
So 19.09. 23:2012982 %1019
1019
1012
O 2 (3)>= 10000Stark bewölkt (1400) 
Hannover
54
So 19.09. 22:5012982 %1019
1019
1012
O 2 (3)>= 10000Stark bewölkt (1400) 
Hannover
54
So 19.09. 22:2012982 %1019
1019
1012
O 2 (4)>= 10000Stark bewölkt (1500) 
Hannover
54
So 19.09. 21:5012982 %1019
1019
1012
O 2 (3)>= 10000Stark bewölkt (1400) 
Hannover
54
So 19.09. 21:20121088 %1019
1019
1012
ONO 2 (3)>= 10000Stark bewölkt (1400) 
Hannover
54
So 19.09. 20:5012982 %1018
1018
1012
ONO 1 (2)>= 10000Stark bewölkt (1400) 
Hannover
54
So 19.09. 20:2012982 %1018
1018
1012
NO 1 (1)>= 10000Stark bewölkt (1400) 
Hannover
54
So 19.09. 19:5013977 %1018
1018
1012
O 2 (3)>= 10000Stark bewölkt (1300)
Leicht bewölkt (1100)
 
Hannover
54
So 19.09. 19:2013977 %1018
1018
1012
O 2 (3)>= 10000Stark bewölkt (1300)
Leicht bewölkt (1100)
 
Hannover
54
So 19.09. 18:5014867 %1018
1018
1012
O 2 (5)>= 10000Stark bewölkt (1300)
Leicht bewölkt (1100)
 
Hannover
54
So 19.09. 18:2014867 %1018
1018
1012
ONO 2 (5)>= 10000Stark bewölkt (1400)
Leicht bewölkt (1100)
 
Hannover
54
So 19.09. 17:5014867 %1018
1018
1012
O 3 (7)>= 10000Stark bewölkt (1300)
Leicht bewölkt (1100)
 
Hannover
54
So 19.09. 17:2014763 %1018
1018
1012
O 3 (8)>= 10000Stark bewölkt (1300)
Leicht bewölkt (1100)
 
Hannover
54
So 19.09. 16:5014867 %1018
1018
1012
O 3 (7)>= 10000Bedeckt (1200)
Leicht bewölkt (1000)
 
Hannover
54
So 19.09. 16:2014763 %1018
1018
1012
O 2 (6)>= 10000Bedeckt (1200)
Leicht bewölkt (1000)
 
Hannover
54
So 19.09. 15:5014763 %1018
1018
1012
O 3 (8)>= 10000Bedeckt (1200)
Leicht bewölkt (1000)
 
Hannover
54
So 19.09. 15:2014763 %1018
1018
1012
OSO 2 (6)
O - S
>= 10000Bedeckt (1200)
Leicht bewölkt (1000)
 

Altimeter: Einstellung am Altimeter (Höhenmesser), die Höhe 0 muss auf diesen Luftdruckwert zeigen, damit das Gerät die Stationshöhe richtig anzeigt.

NN: Luftdruck reduziert auf "Normal Null", auf Meereshöhe, dieser von der Temperatur abhängige Wert wird bisweilen unkorrekt einfach als "Luftdruck" bezeichnet. Eigentlich nur eine fiktive Größe, die es erlaubt, Stationen auf unterschiedlichen Höhen miteinander zu vergleichen.

Station: Realer Luftdruck an der Station.